N15T BGGH-CYYR
Flight info
| Callsign | N15T |
|---|---|
| Flight time | N/A |
| Altitude | 18000 |
| Route | AMKOX1A AMKOX DCT 6055N DCT 57N058W/N0194F180 |
| Aircraft | BT36/L-BDFGLORY/S |
Departure
| Time | 2026-04-25 19:31 |
|---|---|
| Airport | Nuuk International Airport (BGGH) |
Arrival
| Time | N/A |
|---|---|
| Airport | Goose Bay Airport (CYYR) |
| Time | Latitude | Longitude | Altitude | Speed | Heading |
|---|---|---|---|---|---|
| 2026-04-25 19:10 | 64.18950 | -51.67471 | 271 ft | 0 kts | 329° |
| 2026-04-25 19:29 | 64.18951 | -51.67473 | 298 ft | 3 kts | 329° |
| 2026-04-25 19:29 | 64.19018 | -51.67546 | 268 ft | 16 kts | 336° |
| 2026-04-25 19:30 | 64.19073 | -51.67673 | 275 ft | 11 kts | 290° |
| 2026-04-25 19:30 | 64.19029 | -51.67841 | 277 ft | 20 kts | 200° |
| 2026-04-25 19:30 | 64.18939 | -51.67967 | 276 ft | 18 kts | 289° |
| 2026-04-25 19:30 | 64.18949 | -51.67957 | 276 ft | 6 kts | 102° |
| 2026-04-25 19:31 | 64.19076 | -51.67834 | 276 ft | 49 kts | 19° |
| 2026-04-25 19:31 | 64.19522 | -51.67447 | 431 ft | 77 kts | 18° |
| 2026-04-25 19:31 | 64.20100 | -51.67090 | 672 ft | 97 kts | 5° |
| 2026-04-25 19:31 | 64.20839 | -51.66967 | 947 ft | 112 kts | 4° |
| 2026-04-25 19:32 | 64.21614 | -51.67220 | 1249 ft | 120 kts | 333° |
| 2026-04-25 19:32 | 64.22124 | -51.68818 | 1549 ft | 137 kts | 291° |
| 2026-04-25 19:32 | 64.21880 | -51.71030 | 1817 ft | 158 kts | 235° |
| 2026-04-25 19:32 | 64.21618 | -51.71593 | 1906 ft | 162 kts | 217° |
| 2026-04-25 19:33 | 64.19771 | -51.72614 | 2369 ft | 167 kts | 189° |
| 2026-04-25 19:33 | 64.18633 | -51.73140 | 2650 ft | 167 kts | 192° |
| 2026-04-25 19:33 | 64.17483 | -51.73744 | 2922 ft | 176 kts | 193° |
| 2026-04-25 19:33 | 64.16276 | -51.74386 | 3181 ft | 179 kts | 193° |
| 2026-04-25 19:34 | 64.15086 | -51.75031 | 3484 ft | 171 kts | 192° |
| 2026-04-25 19:34 | 64.13950 | -51.75629 | 3839 ft | 165 kts | 193° |
| 2026-04-25 19:34 | 64.12839 | -51.76138 | 4190 ft | 161 kts | 181° |
| 2026-04-25 19:34 | 64.11739 | -51.75944 | 4554 ft | 158 kts | 174° |
| 2026-04-25 19:35 | 64.10645 | -51.75799 | 4917 ft | 157 kts | 175° |
| 2026-04-25 19:35 | 64.09552 | -51.75646 | 5283 ft | 160 kts | 175° |
| 2026-04-25 19:35 | 64.08433 | -51.75482 | 5639 ft | 160 kts | 175° |
| 2026-04-25 19:35 | 64.07320 | -51.75315 | 6008 ft | 160 kts | 175° |
| 2026-04-25 19:36 | 64.06206 | -51.75151 | 6382 ft | 162 kts | 176° |
| 2026-04-25 19:36 | 64.05075 | -51.74986 | 6732 ft | 163 kts | 176° |
| 2026-04-25 19:36 | 64.03934 | -51.74814 | 7089 ft | 166 kts | 177° |
| 2026-04-25 19:36 | 64.02781 | -51.74645 | 7442 ft | 166 kts | 177° |
| 2026-04-25 19:37 | 64.01637 | -51.74476 | 7798 ft | 164 kts | 178° |
| 2026-04-25 19:37 | 64.00495 | -51.74308 | 8164 ft | 164 kts | 178° |
| 2026-04-25 19:37 | 63.99359 | -51.74142 | 8525 ft | 163 kts | 178° |
| 2026-04-25 19:37 | 63.98227 | -51.73967 | 8892 ft | 163 kts | 179° |
| 2026-04-25 19:38 | 63.97123 | -51.73394 | 9266 ft | 166 kts | 152° |
| 2026-04-25 19:38 | 63.96100 | -51.72174 | 9643 ft | 166 kts | 155° |
| 2026-04-25 19:38 | 63.95059 | -51.71021 | 9981 ft | 170 kts | 155° |
| 2026-04-25 19:38 | 63.93940 | -51.69760 | 10001 ft | 187 kts | 155° |
| 2026-04-25 19:39 | 63.92735 | -51.68394 | 9999 ft | 199 kts | 154° |
| 2026-04-25 19:39 | 63.91475 | -51.66963 | 10001 ft | 205 kts | 155° |
| 2026-04-25 19:39 | 63.90186 | -51.65501 | 9998 ft | 209 kts | 154° |
| 2026-04-25 19:39 | 63.88886 | -51.64023 | 9992 ft | 209 kts | 154° |
| 2026-04-25 19:40 | 63.87585 | -51.62556 | 9984 ft | 209 kts | 155° |
| 2026-04-25 19:40 | 63.86288 | -51.61092 | 9982 ft | 209 kts | 155° |
| 2026-04-25 19:40 | 63.84989 | -51.59624 | 9976 ft | 207 kts | 154° |
| 2026-04-25 19:40 | 63.83706 | -51.58176 | 9972 ft | 205 kts | 155° |
| 2026-04-25 19:41 | 63.82432 | -51.56742 | 9970 ft | 204 kts | 155° |
| 2026-04-25 19:41 | 63.81164 | -51.55318 | 9965 ft | 203 kts | 155° |
| 2026-04-25 19:41 | 63.79900 | -51.53900 | 9965 ft | 202 kts | 155° |
| 2026-04-25 19:41 | 63.79466 | -51.53468 | 9958 ft | 201 kts | 161° |
| 2026-04-25 19:42 | 63.77218 | -51.53340 | 9951 ft | 193 kts | 202° |
| 2026-04-25 19:42 | 63.76006 | -51.54529 | 9952 ft | 189 kts | 211° |
| 2026-04-25 19:42 | 63.74811 | -51.55792 | 9954 ft | 190 kts | 210° |
| 2026-04-25 19:42 | 63.73613 | -51.57034 | 9952 ft | 189 kts | 211° |
| 2026-04-25 19:43 | 63.72419 | -51.58293 | 9954 ft | 189 kts | 212° |
| 2026-04-25 19:43 | 63.71225 | -51.59551 | 9954 ft | 190 kts | 211° |
| 2026-04-25 19:43 | 63.70031 | -51.60802 | 9953 ft | 189 kts | 211° |
| 2026-04-25 19:43 | 63.68840 | -51.62041 | 9951 ft | 188 kts | 211° |
| 2026-04-25 19:44 | 63.67654 | -51.63281 | 9945 ft | 188 kts | 211° |
| 2026-04-25 19:44 | 63.66469 | -51.64524 | 9949 ft | 188 kts | 211° |
| 2026-04-25 19:44 | 63.65283 | -51.65758 | 9947 ft | 188 kts | 211° |
| 2026-04-25 19:44 | 63.64098 | -51.66992 | 9950 ft | 187 kts | 211° |
| 2026-04-25 19:45 | 63.62914 | -51.68225 | 9951 ft | 187 kts | 212° |
| 2026-04-25 19:45 | 63.61733 | -51.69460 | 9949 ft | 188 kts | 212° |
| 2026-04-25 19:45 | 63.60547 | -51.70693 | 9949 ft | 188 kts | 212° |
| 2026-04-25 19:45 | 63.59377 | -51.71906 | 9953 ft | 188 kts | 210° |
| 2026-04-25 19:46 | 63.58180 | -51.73148 | 9994 ft | 186 kts | 212° |
| 2026-04-25 19:46 | 63.57006 | -51.74370 | 9992 ft | 186 kts | 212° |
| 2026-04-25 19:46 | 63.55829 | -51.75593 | 9993 ft | 187 kts | 213° |
| 2026-04-25 19:46 | 63.55624 | -51.75807 | 9994 ft | 187 kts | 210° |